Time;durP1;ratioP1;P1;durP2;ratioP2;P2;SDS_P1;SDS_P2;PMS_P1;PMS_P2;Temp;Humidity;BMP_temperature;BMP_pressure;BME280_temperature;BME280_humidity;BME280_pressure;Samples;Min_cycle;Max_cycle;Signal;HPM_P1;HPM_P2
2021/06/04 00:00:28;;;;;;;28.38;19.27;;;20.30;99.90;;;;;;5086429;28;20207;-61
2021/06/04 00:02:55;;;;;;;32.72;18.33;;;20.40;99.90;;;;;;5086040;28;20186;-61
2021/06/04 00:05:30;;;;;;;30.63;18.65;;;20.50;99.90;;;;;;5083215;28;20203;-60
2021/06/04 00:07:56;;;;;;;27.40;19.63;;;20.50;99.90;;;;;;5086333;28;20163;-60
2021/06/04 00:10:46;;;;;;;37.55;20.60;;;20.30;99.90;;;;;;5085719;28;20214;-60
2021/06/04 00:13:14;;;;;;;27.17;19.30;;;20.30;99.90;;;;;;5085822;28;20239;-61
2021/06/04 00:15:40;;;;;;;29.00;20.02;;;20.20;99.90;;;;;;5083680;28;20171;-60
2021/06/04 00:18:05;;;;;;;34.47;20.67;;;20.20;99.90;;;;;;5085949;28;20172;-61
2021/06/04 00:20:31;;;;;;;31.85;20.55;;;20.20;99.90;;;;;;5086143;28;20227;-60
2021/06/04 00:22:57;;;;;;;32.13;19.20;;;20.30;99.90;;;;;;5085814;28;20180;-60
2021/06/04 00:25:22;;;;;;;36.35;20.00;;;20.50;99.90;;;;;;5082903;28;20195;-60
2021/06/04 00:27:48;;;;;;;40.90;20.08;;;20.40;99.90;;;;;;5086206;28;20176;-61
2021/06/04 00:30:16;;;;;;;28.60;20.70;;;20.40;99.90;;;;;;5086063;28;20164;-60
2021/06/04 00:32:42;;;;;;;35.42;19.58;;;20.50;99.90;;;;;;5085951;28;20167;-60
2021/06/04 00:35:09;;;;;;;30.77;19.48;;;20.30;99.90;;;;;;5082963;28;20167;-61
2021/06/04 00:37:36;;;;;;;35.78;21.38;;;20.20;99.90;;;;;;5085903;28;20193;-60
2021/06/04 00:40:13;;;;;;;28.65;19.92;;;20.10;99.90;;;;;;5085614;28;20225;-60
2021/06/04 00:42:39;;;;;;;32.67;19.23;;;20.00;99.90;;;;;;5085800;28;20194;-60
2021/06/04 00:45:10;;;;;;;34.40;19.23;;;19.90;99.90;;;;;;5082849;28;20526;-61
2021/06/04 00:47:36;;;;;;;32.33;20.33;;;20.00;99.90;;;;;;5085753;28;20219;-60
2021/06/04 00:50:06;;;;;;;27.27;19.05;;;20.10;99.90;;;;;;5085742;28;20207;-60
2021/06/04 00:52:35;;;;;;;33.03;19.77;;;20.00;99.90;;;;;;5085562;28;20172;-60
2021/06/04 00:55:03;;;;;;;29.75;19.90;;;20.00;99.90;;;;;;5082828;28;20218;-61
2021/06/04 00:57:29;;;;;;;29.52;19.40;;;19.90;99.90;;;;;;5085876;28;20247;-60
2021/06/04 01:00:02;;;;;;;27.92;19.33;;;19.80;99.90;;;;;;5085831;28;20191;-60
2021/06/04 01:02:29;;;;;;;27.20;18.55;;;19.70;99.90;;;;;;5085511;28;20171;-60
2021/06/04 01:04:56;;;;;;;30.75;17.83;;;19.70;99.90;;;;;;5082848;28;20223;-60
2021/06/04 01:08:01;;;;;;;26.45;18.05;;;19.60;99.90;;;;;;5088424;28;20156;-60
2021/06/04 01:10:39;;;;;;;27.02;18.17;;;19.70;99.90;;;;;;5067116;28;20647;-60
2021/06/04 01:13:10;;;;;;;30.27;18.88;;;19.60;99.90;;;;;;5067080;28;20168;-60
2021/06/04 01:15:59;;;;;;;31.27;18.85;;;19.80;99.90;;;;;;5064580;28;20263;-60
2021/06/04 01:18:48;;;;;;;28.17;18.73;;;19.70;99.90;;;;;;5067199;28;20156;-60
2021/06/04 01:21:26;;;;;;;32.97;19.30;;;19.40;99.90;;;;;;5067151;28;20203;-60
2021/06/04 01:24:10;;;;;;;27.02;18.70;;;19.10;99.90;;;;;;5066916;28;20222;-60
2021/06/04 01:26:46;;;;;;;28.42;19.95;;;19.20;99.90;;;;;;5064975;28;20742;-60
2021/06/04 01:29:35;;;;;;;32.97;20.05;;;19.20;99.90;;;;;;5067122;28;20160;-61
2021/06/04 01:32:13;;;;;;;33.85;19.98;;;19.40;99.90;;;;;;5067187;28;20188;-60
2021/06/04 01:34:42;;;;;;;29.95;20.30;;;19.40;99.90;;;;;;5064104;28;20187;-61
2021/06/04 01:37:12;;;;;;;36.38;20.38;;;19.30;99.90;;;;;;5066803;28;20188;-61
2021/06/04 01:39:45;;;;;;;30.48;19.48;;;19.30;99.90;;;;;;5066696;28;20180;-60
2021/06/04 01:42:15;;;;;;;30.33;20.05;;;19.50;99.90;;;;;;5066725;28;20184;-60
2021/06/04 01:44:51;;;;;;;33.78;18.77;;;19.50;99.90;;;;;;5063906;28;20211;-61
2021/06/04 01:47:25;;;;;;;28.08;18.88;;;19.30;99.90;;;;;;5081946;28;20211;-60
2021/06/04 01:49:53;;;;;;;30.20;19.15;;;19.10;99.90;;;;;;5088774;28;20203;-61
2021/06/04 01:52:34;;;;;;;30.98;19.52;;;19.40;99.90;;;;;;5088682;28;20153;-60
2021/06/04 01:55:08;;;;;;;28.27;19.98;;;19.30;99.90;;;;;;5085964;28;20172;-60
2021/06/04 01:57:53;;;;;;;32.97;20.17;;;19.30;99.90;;;;;;5088947;28;20167;-60
2021/06/04 02:00:26;;;;;;;26.65;18.88;;;19.00;99.90;;;;;;5088665;28;20156;-60
2021/06/04 02:02:52;;;;;;;32.55;19.90;;;19.10;99.90;;;;;;5088663;28;20197;-61
2021/06/04 02:05:21;;;;;;;25.70;19.50;;;19.30;99.90;;;;;;5085804;28;20233;-60
2021/06/04 02:07:47;;;;;;;28.38;19.98;;;19.50;99.90;;;;;;5088672;28;20218;-60
2021/06/04 02:10:22;;;;;;;29.58;20.95;;;19.30;99.90;;;;;;5088293;28;20168;-60
2021/06/04 02:12:49;;;;;;;31.60;18.60;;;19.10;99.90;;;;;;5088443;28;20179;-60
2021/06/04 02:15:21;;;;;;;27.58;20.35;;;18.80;99.90;;;;;;5084404;28;20168;-60
2021/06/04 02:17:52;;;;;;;29.13;20.75;;;18.90;99.90;;;;;;5087409;28;20221;-60
2021/06/04 02:20:27;;;;;;;29.80;21.02;;;19.10;99.90;;;;;;5088378;28;20167;-60
2021/06/04 02:23:06;;;;;;;28.38;19.48;;;19.00;99.90;;;;;;5088087;28;20172;-60
2021/06/04 02:26:00;;;;;;;28.98;20.25;;;18.70;99.90;;;;;;5085390;28;20213;-61
2021/06/04 02:28:30;;;;;;;31.63;20.08;;;18.50;99.90;;;;;;5088363;28;20164;-61
2021/06/04 02:30:56;;;;;;;32.63;19.88;;;18.50;99.90;;;;;;5088215;28;20164;-60
2021/06/04 02:33:27;;;;;;;30.25;19.50;;;18.60;99.90;;;;;;5087992;28;20186;-60
2021/06/04 02:35:59;;;;;;;29.58;18.95;;;18.60;99.90;;;;;;5085702;28;20160;-60
2021/06/04 02:38:47;;;;;;;31.17;20.05;;;18.50;99.90;;;;;;5088175;28;20203;-61
2021/06/04 02:41:20;;;;;;;26.92;19.02;;;18.60;99.90;;;;;;5087606;28;20641;-60
2021/06/04 02:43:49;;;;;;;31.13;19.30;;;18.60;99.90;;;;;;5087767;28;20182;-60
2021/06/04 02:46:22;;;;;;;28.33;19.20;;;18.50;99.90;;;;;;5085513;28;20536;-61
2021/06/04 02:48:49;;;;;;;32.58;20.23;;;18.40;99.90;;;;;;5088123;28;20193;-60
2021/06/04 02:51:33;;;;;;;25.08;18.65;;;17.80;99.90;;;;;;5087397;28;20758;-60
2021/06/04 02:54:06;;;;;;;27.15;18.23;;;17.90;99.90;;;;;;5087325;28;20222;-60
2021/06/04 02:56:35;;;;;;;31.27;20.17;;;17.90;99.90;;;;;;5085337;28;20539;-60
2021/06/04 02:59:06;;;;;;;34.42;20.60;;;17.90;99.90;;;;;;5087926;28;20174;-60
2021/06/04 03:01:34;;;;;;;34.63;21.95;;;17.90;99.90;;;;;;5087618;28;20571;-60
2021/06/04 03:04:01;;;;;;;28.52;20.20;;;17.90;99.90;;;;;;5087349;28;20195;-60
2021/06/04 03:06:36;;;;;;;35.05;21.77;;;17.80;99.90;;;;;;5084964;28;20661;-60
2021/06/04 03:09:04;;;;;;;34.67;20.83;;;17.70;99.90;;;;;;5087445;28;20172;-62
2021/06/04 03:11:32;;;;;;;29.88;21.08;;;17.70;99.90;;;;;;5087182;28;20187;-61
2021/06/04 03:14:03;;;;;;;34.25;23.08;;;17.80;99.90;;;;;;5087178;28;20180;-60
2021/06/04 03:16:29;;;;;;;32.75;21.77;;;18.00;99.90;;;;;;5084627;28;20171;-60
2021/06/04 03:18:59;;;;;;;37.83;22.98;;;18.10;99.90;;;;;;5086135;28;20200;-60
2021/06/04 03:22:07;;;;;;;40.15;23.83;;;18.20;99.90;;;;;;5087120;28;20228;-60
2021/06/04 03:24:36;;;;;;;33.75;22.33;;;18.30;99.90;;;;;;5083643;28;20440;-60
2021/06/04 03:27:04;;;;;;;34.92;22.70;;;18.30;99.90;;;;;;5086822;28;20168;-60
2021/06/04 03:29:30;;;;;;;43.47;23.67;;;18.40;99.90;;;;;;5086835;28;20164;-60
2021/06/04 03:32:00;;;;;;;39.95;23.08;;;18.40;99.90;;;;;;5087295;28;20156;-60
2021/06/04 03:34:26;;;;;;;39.10;23.65;;;18.70;99.90;;;;;;5084472;28;20397;-62
2021/06/04 03:36:54;;;;;;;40.25;22.85;;;18.60;99.90;;;;;;5087000;28;20171;-60
2021/06/04 03:39:24;;;;;;;38.33;23.50;;;18.50;99.90;;;;;;5086534;28;20192;-60
2021/06/04 03:41:51;;;;;;;34.70;23.27;;;18.50;99.90;;;;;;5086524;28;20176;-60
2021/06/04 03:44:20;;;;;;;37.05;22.95;;;18.50;99.90;;;;;;5085040;28;20199;-60
2021/06/04 03:46:46;;;;;;;36.25;21.70;;;18.30;99.90;;;;;;5086250;28;20160;-61
2021/06/04 03:49:14;;;;;;;34.53;21.17;;;18.10;99.90;;;;;;5086503;28;20160;-60
2021/06/04 03:51:42;;;;;;;28.20;20.77;;;17.90;99.90;;;;;;5086770;28;20156;-60
2021/06/04 03:54:11;;;;;;;33.58;21.88;;;17.90;99.90;;;;;;5086031;28;20198;-61
2021/06/04 03:56:38;;;;;;;34.85;20.63;;;17.90;99.90;;;;;;5084387;28;20172;-60
2021/06/04 03:59:05;;;;;;;32.60;19.42;;;17.90;99.90;;;;;;5086500;28;20168;-60
2021/06/04 04:01:38;;;;;;;32.58;21.02;;;18.00;99.90;;;;;;5086187;28;20170;-60
2021/06/04 04:04:04;;;;;;;32.88;20.73;;;18.00;99.90;;;;;;5086357;28;20219;-60
2021/06/04 04:06:30;;;;;;;31.08;21.30;;;18.10;99.90;;;;;;5084023;28;20572;-60
2021/06/04 04:08:56;;;;;;;29.58;20.75;;;18.00;99.90;;;;;;5086229;28;20171;-60
2021/06/04 04:11:22;;;;;;;34.63;22.42;;;18.10;99.90;;;;;;5085795;28;20168;-60
2021/06/04 04:13:49;;;;;;;38.88;23.58;;;18.20;99.90;;;;;;5086168;28;20175;-60
2021/06/04 04:16:15;;;;;;;40.97;23.75;;;18.50;99.90;;;;;;5083511;28;20163;-60
2021/06/04 04:18:40;;;;;;;40.17;23.67;;;18.50;99.90;;;;;;5086104;28;20152;-60
2021/06/04 04:21:09;;;;;;;32.08;22.23;;;18.50;99.90;;;;;;5085936;28;20160;-61
2021/06/04 04:23:46;;;;;;;34.05;23.02;;;18.30;99.90;;;;;;5085853;28;20168;-60
2021/06/04 04:26:15;;;;;;;34.40;22.90;;;18.40;99.90;;;;;;5083367;28;20164;-60
2021/06/04 04:28:42;;;;;;;35.72;22.35;;;18.40;99.90;;;;;;5084879;28;20171;-60
2021/06/04 04:31:11;;;;;;;43.60;23.17;;;18.30;99.90;;;;;;5085801;28;20167;-60
2021/06/04 04:33:37;;;;;;;34.25;22.55;;;18.10;99.90;;;;;;5085829;28;20164;-60
2021/06/04 04:36:08;;;;;;;37.90;23.88;;;18.00;99.90;;;;;;5083390;28;20563;-61
2021/06/04 04:38:34;;;;;;;33.03;22.80;;;18.00;99.90;;;;;;5085512;28;20163;-60
2021/06/04 04:41:02;;;;;;;39.30;23.63;;;18.00;99.90;;;;;;5084834;28;20172;-60
2021/06/04 04:43:31;;;;;;;36.42;24.33;;;18.20;99.90;;;;;;5085585;28;20168;-59
2021/06/04 04:45:57;;;;;;;38.28;23.75;;;18.30;99.90;;;;;;5083213;28;20290;-60
2021/06/04 04:48:24;;;;;;;37.33;24.35;;;18.40;99.90;;;;;;5085546;28;20163;-60
2021/06/04 04:50:51;;;;;;;36.92;23.65;;;18.60;99.90;;;;;;5085685;28;20238;-60
2021/06/04 04:53:17;;;;;;;39.40;22.88;;;18.70;99.90;;;;;;5085544;28;20170;-60
2021/06/04 04:55:43;;;;;;;41.38;24.20;;;18.60;99.90;;;;;;5082665;28;20191;-60
2021/06/04 04:58:10;;;;;;;39.20;22.20;;;18.50;99.90;;;;;;5085627;28;20167;-60
2021/06/04 05:00:39;;;;;;;38.10;23.08;;;18.40;99.90;;;;;;5084370;28;20168;-60
2021/06/04 05:03:07;;;;;;;34.33;22.45;;;18.40;99.90;;;;;;5085491;28;20210;-60
2021/06/04 05:05:33;;;;;;;45.58;23.60;;;18.40;99.90;;;;;;5082991;28;20192;-60
2021/06/04 05:07:59;;;;;;;32.17;22.25;;;18.40;99.90;;;;;;5085871;28;20164;-60
2021/06/04 05:10:25;;;;;;;38.40;23.98;;;18.50;99.90;;;;;;5085137;28;20191;-60
2021/06/04 05:12:50;;;;;;;36.75;23.20;;;18.70;99.90;;;;;;5085496;28;20228;-60
2021/06/04 05:15:20;;;;;;;39.55;23.23;;;18.70;99.90;;;;;;5082874;28;20168;-60
2021/06/04 05:17:46;;;;;;;40.70;23.58;;;18.80;99.90;;;;;;5085472;28;20190;-60
2021/06/04 05:20:13;;;;;;;35.92;23.58;;;18.90;99.90;;;;;;5085342;28;20187;-61
2021/06/04 05:22:41;;;;;;;41.22;24.58;;;19.20;99.90;;;;;;5085409;28;20198;-60
2021/06/04 05:25:10;;;;;;;38.63;24.40;;;19.60;99.90;;;;;;5082151;28;20188;-61
2021/06/04 05:27:36;;;;;;;40.17;23.77;;;19.80;99.90;;;;;;5085396;28;20153;-60
2021/06/04 05:30:06;;;;;;;42.00;24.75;;;19.80;99.90;;;;;;5085495;28;20164;-60
2021/06/04 05:32:32;;;;;;;47.30;23.63;;;19.80;99.90;;;;;;5085365;28;20181;-60
2021/06/04 05:34:57;;;;;;;36.20;23.45;;;20.00;99.90;;;;;;5082584;28;20179;-60
2021/06/04 05:37:23;;;;;;;39.90;22.70;;;20.00;99.90;;;;;;5083831;28;20164;-60
2021/06/04 05:39:48;;;;;;;35.50;23.00;;;20.00;99.90;;;;;;5084933;28;20195;-61
2021/06/04 05:42:14;;;;;;;48.25;23.10;;;20.20;99.90;;;;;;5085221;28;20192;-61
2021/06/04 05:44:42;;;;;;;36.10;23.60;;;20.40;99.90;;;;;;5082553;28;20206;-60
2021/06/04 05:47:11;;;;;;;49.58;23.70;;;20.60;99.90;;;;;;5085042;28;20164;-60
2021/06/04 05:49:37;;;;;;;40.22;22.42;;;20.70;99.90;;;;;;5085046;28;20204;-60
2021/06/04 05:52:08;;;;;;;44.40;24.55;;;20.80;99.90;;;;;;5085142;28;20408;-60
2021/06/04 05:54:45;;;;;;;34.00;23.15;;;20.80;99.90;;;;;;5086127;28;20176;-61
2021/06/04 05:57:11;;;;;;;48.22;22.58;;;20.70;99.90;;;;;;5088290;28;20209;-61
2021/06/04 05:59:36;;;;;;;33.60;22.02;;;20.60;99.90;;;;;;5088661;28;20191;-60
2021/06/04 06:02:03;;;;;;;38.80;23.48;;;20.50;99.90;;;;;;5088808;28;20633;-61
2021/06/04 06:04:28;;;;;;;30.92;21.70;;;20.40;99.90;;;;;;5085815;28;20363;-61
2021/06/04 06:06:54;;;;;;;33.65;21.45;;;20.30;99.90;;;;;;5088580;28;20168;-61
2021/06/04 06:09:21;;;;;;;40.92;22.30;;;20.40;99.90;;;;;;5088495;28;20182;-61
2021/06/04 06:11:48;;;;;;;37.55;23.35;;;20.30;99.90;;;;;;5088054;28;20168;-61
2021/06/04 06:14:15;;;;;;;37.47;22.08;;;20.30;99.90;;;;;;5087241;28;20168;-61
2021/06/04 06:16:42;;;;;;;47.85;22.02;;;20.40;99.90;;;;;;5087120;28;20168;-61
2021/06/04 06:19:14;;;;;;;32.38;21.08;;;20.50;99.90;;;;;;5088059;28;20160;-60
2021/06/04 06:21:44;;;;;;;36.22;23.17;;;20.70;99.90;;;;;;5088288;28;20172;-61
2021/06/04 06:24:11;;;;;;;33.08;20.40;;;20.90;99.90;;;;;;5087294;28;20191;-61
2021/06/04 06:26:37;;;;;;;33.72;21.70;;;21.00;99.90;;;;;;5086002;28;20164;-61
2021/06/04 06:29:06;;;;;;;36.30;21.85;;;21.10;99.90;;;;;;5088330;28;20161;-61
2021/06/04 06:31:36;;;;;;;38.03;22.42;;;21.20;99.90;;;;;;5088221;28;20174;-61
2021/06/04 06:34:03;;;;;;;40.90;23.17;;;21.30;99.90;;;;;;5088193;28;20529;-61
2021/06/04 06:36:32;;;;;;;41.08;23.35;;;21.40;99.90;;;;;;5085698;28;20224;-61
2021/06/04 06:39:00;;;;;;;39.58;22.48;;;21.40;99.90;;;;;;5087521;28;20171;-61
2021/06/04 06:41:29;;;;;;;45.83;24.10;;;21.30;99.90;;;;;;5087187;28;20175;-61
2021/06/04 06:43:55;;;;;;;38.67;22.50;;;21.30;99.90;;;;;;5087535;28;20596;-60
2021/06/04 06:46:23;;;;;;;50.70;24.13;;;21.40;99.90;;;;;;5084972;28;20171;-61
2021/06/04 06:48:49;;;;;;;39.00;22.60;;;21.30;99.90;;;;;;5087830;28;20160;-60
2021/06/04 06:51:15;;;;;;;40.92;21.58;;;21.30;99.90;;;;;;5087354;28;20216;-61
2021/06/04 06:53:42;;;;;;;41.10;23.10;;;21.40;99.90;;;;;;5087126;28;20171;-61
2021/06/04 06:56:11;;;;;;;38.92;21.30;;;21.40;99.90;;;;;;5084528;28;20168;-61
2021/06/04 06:58:37;;;;;;;37.13;20.83;;;21.50;99.90;;;;;;5086430;28;20587;-61
2021/06/04 07:01:05;;;;;;;37.17;20.40;;;21.40;99.90;;;;;;5087626;28;20160;-61
2021/06/04 07:03:35;;;;;;;34.83;21.83;;;21.00;99.90;;;;;;5087093;28;20180;-61
2021/06/04 07:06:03;;;;;;;33.03;19.45;;;21.10;99.90;;;;;;5084714;28;20207;-61
2021/06/04 07:08:29;;;;;;;32.33;19.25;;;21.10;99.90;;;;;;5087445;28;20168;-61
2021/06/04 07:10:55;;;;;;;33.15;17.17;;;21.40;99.90;;;;;;5086994;28;20231;-62
2021/06/04 07:13:26;;;;;;;30.25;16.67;;;21.70;99.90;;;;;;5087175;28;20183;-61
2021/06/04 07:15:54;;;;;;;20.42;16.02;;;21.90;99.90;;;;;;5084487;28;20188;-61
2021/06/04 07:18:20;;;;;;;36.95;19.27;;;22.10;99.90;;;;;;5087247;28;20199;-61
2021/06/04 07:20:46;;;;;;;24.10;15.57;;;22.30;99.90;;;;;;5087338;28;20167;-61
2021/06/04 07:23:11;;;;;;;25.38;16.17;;;22.40;99.90;;;;;;5086957;28;20244;-61
2021/06/04 07:25:40;;;;;;;26.67;15.73;;;22.50;99.90;;;;;;5083926;28;20731;-61
2021/06/04 07:28:06;;;;;;;32.25;17.52;;;22.60;99.90;;;;;;5086948;28;20161;-61
2021/06/04 07:30:36;;;;;;;26.67;16.67;;;22.70;99.90;;;;;;5087049;28;20171;-61
2021/06/04 07:33:06;;;;;;;25.10;16.23;;;22.80;99.90;;;;;;5086342;28;20190;-61
2021/06/04 07:35:34;;;;;;;21.75;14.68;;;23.00;99.90;;;;;;5083964;28;20194;-61
2021/06/04 07:38:00;;;;;;;24.65;13.95;;;23.10;99.90;;;;;;5086216;28;20224;-61
2021/06/04 07:40:29;;;;;;;25.30;16.50;;;23.20;99.90;;;;;;5086395;28;20171;-60
2021/06/04 07:42:56;;;;;;;21.45;15.68;;;23.30;99.90;;;;;;5086739;28;20193;-60
2021/06/04 07:45:24;;;;;;;29.65;15.88;;;23.40;99.90;;;;;;5083686;28;20654;-61
2021/06/04 07:47:49;;;;;;;23.15;14.30;;;23.60;99.90;;;;;;5086461;28;20213;-60
2021/06/04 07:50:15;;;;;;;22.25;14.98;;;23.70;99.90;;;;;;5086201;28;20216;-61
2021/06/04 07:52:41;;;;;;;23.88;15.23;;;23.70;99.90;;;;;;5086614;28;20188;-61
2021/06/04 07:55:10;;;;;;;22.95;13.93;;;23.70;99.90;;;;;;5083134;28;20172;-61
2021/06/04 07:57:36;;;;;;;24.75;14.90;;;23.70;99.90;;;;;;5085295;28;20160;-61
2021/06/04 08:00:08;;;;;;;24.10;16.35;;;23.80;99.90;;;;;;5086461;28;20160;-61
2021/06/04 08:02:34;;;;;;;17.65;13.70;;;24.00;99.90;;;;;;5086117;28;20672;-61
2021/06/04 08:04:59;;;;;;;18.67;13.65;;;24.10;99.90;;;;;;5083150;28;20199;-61
2021/06/04 08:07:25;;;;;;;27.75;15.95;;;24.20;99.90;;;;;;5085269;28;20506;-61
2021/06/04 08:09:51;;;;;;;24.38;14.43;;;24.40;99.90;;;;;;5085914;28;20164;-61
2021/06/04 08:12:18;;;;;;;20.55;13.18;;;24.40;99.90;;;;;;5085354;28;20179;-61
2021/06/04 08:14:44;;;;;;;24.08;14.43;;;24.50;99.90;;;;;;5083215;28;20167;-61
2021/06/04 08:17:09;;;;;;;26.63;14.98;;;24.40;99.90;;;;;;5084222;28;20155;-61
2021/06/04 08:19:36;;;;;;;19.23;13.38;;;24.40;99.90;;;;;;5084901;28;20191;-61
2021/06/04 08:22:06;;;;;;;21.67;14.13;;;24.40;99.90;;;;;;5085804;28;20243;-61
2021/06/04 08:24:35;;;;;;;23.50;13.20;;;24.60;99.90;;;;;;5082543;28;20198;-61
2021/06/04 08:27:03;;;;;;;24.63;14.27;;;24.60;99.90;;;;;;5085294;28;20196;-61
2021/06/04 08:29:32;;;;;;;28.45;14.05;;;24.70;99.90;;;;;;5084964;28;20156;-61
2021/06/04 08:32:04;;;;;;;18.27;13.55;;;24.80;99.90;;;;;;5085247;28;20178;-61
2021/06/04 08:34:32;;;;;;;27.27;13.93;;;24.90;99.90;;;;;;5082519;28;20160;-61
2021/06/04 08:37:00;;;;;;;28.88;14.15;;;25.00;99.90;;;;;;5085435;28;20183;-61
2021/06/04 08:39:30;;;;;;;33.92;16.35;;;25.10;99.90;;;;;;5085491;28;20167;-61
2021/06/04 08:42:26;;;;;;;26.80;16.67;;;25.20;99.90;;;;;;5085253;28;20180;-61
2021/06/04 08:45:22;;;;;;;24.42;13.38;;;25.30;99.90;;;;;;5081886;28;20192;-61
2021/06/04 08:48:15;;;;;;;20.90;11.50;;;25.40;99.90;;;;;;5085785;28;20518;-61
2021/06/04 08:50:46;;;;;;;16.38;11.77;;;25.50;99.90;;;;;;5080929;28;20226;-61
2021/06/04 08:53:35;;;;;;;21.10;11.55;;;25.60;99.90;;;;;;5085030;28;20156;-61
2021/06/04 08:56:09;;;;;;;26.20;13.50;;;25.70;99.90;;;;;;5082556;28;20247;-61
2021/06/04 08:59:05;;;;;;;21.52;12.18;;;25.90;99.90;;;;;;5085618;28;20253;-61
2021/06/04 09:01:42;;;;;;;25.27;14.52;;;25.90;99.90;;;;;;5085438;28;20172;-61
2021/06/04 09:04:20;;;;;;;24.83;14.43;;;25.70;99.90;;;;;;5083574;28;20201;-61
2021/06/04 09:07:07;;;;;;;30.08;14.70;;;25.80;99.90;;;;;;5084931;28;20156;-61
2021/06/04 09:09:37;;;;;;;22.83;14.10;;;25.80;99.90;;;;;;5085551;28;20156;-61
2021/06/04 09:12:25;;;;;;;19.48;14.65;;;25.90;99.90;;;;;;5084773;28;20170;-61
2021/06/04 09:14:52;;;;;;;29.30;14.50;;;26.10;99.90;;;;;;5081840;28;20196;-61
2021/06/04 09:17:44;;;;;;;19.38;12.55;;;26.20;99.90;;;;;;5085197;28;20508;-61
2021/06/04 09:20:15;;;;;;;18.45;13.32;;;26.40;99.90;;;;;;5085121;28;20168;-62
2021/06/04 09:22:47;;;;;;;21.33;14.52;;;26.40;99.90;;;;;;5085552;28;20236;-61
2021/06/04 09:25:18;;;;;;;23.90;17.08;;;26.30;99.90;;;;;;5081689;28;20191;-61
2021/06/04 09:27:48;;;;;;;27.60;17.40;;;26.50;99.90;;;;;;5087099;28;20167;-61
2021/06/04 09:30:25;;;;;;;27.83;15.65;;;26.30;99.90;;;;;;5089200;28;20199;-61
2021/06/04 09:33:09;;;;;;;29.48;18.20;;;26.50;99.90;;;;;;5089264;28;20206;-61
2021/06/04 09:35:38;;;;;;;25.23;19.95;;;26.70;99.90;;;;;;5086525;28;20175;-61
2021/06/04 09:38:31;;;;;;;32.20;19.77;;;26.80;99.90;;;;;;5089083;28;20235;-61
2021/06/04 09:41:10;;;;;;;28.77;18.55;;;26.70;99.90;;;;;;5088262;28;20215;-61
2021/06/04 09:43:36;;;;;;;20.67;15.30;;;26.80;99.90;;;;;;5089105;28;20535;-61
2021/06/04 09:46:05;;;;;;;27.88;19.42;;;26.90;99.90;;;;;;5084843;28;20207;-61
2021/06/04 09:48:52;;;;;;;29.73;17.92;;;26.90;99.90;;;;;;5089099;28;20164;-61
2021/06/04 09:51:30;;;;;;;24.77;17.33;;;27.00;99.90;;;;;;5087235;28;20688;-62
2021/06/04 09:54:34;;;;;;;32.35;22.90;;;27.00;99.90;;;;;;5088534;28;20197;-61
2021/06/04 09:57:18;;;;;;;24.98;17.98;;;27.20;99.90;;;;;;5087230;28;20183;-62
2021/06/04 09:59:44;;;;;;;24.48;16.05;;;27.20;99.90;;;;;;5088139;28;20197;-61
2021/06/04 10:02:36;;;;;;;26.23;19.70;;;27.20;99.90;;;;;;5088154;28;20653;-61
2021/06/04 10:05:30;;;;;;;25.27;17.67;;;27.30;99.90;;;;;;5084296;28;20231;-61
2021/06/04 10:08:07;;;;;;;31.33;21.00;;;27.40;99.90;;;;;;5087612;28;20176;-61
2021/06/04 10:10:36;;;;;;;31.08;21.50;;;27.40;99.90;;;;;;5087942;28;20171;-61
2021/06/04 10:13:05;;;;;;;31.67;17.92;;;27.70;99.90;;;;;;5088422;28;20231;-61
2021/06/04 10:15:42;;;;;;;27.60;19.90;;;27.90;99.90;;;;;;5085762;28;20206;-61
2021/06/04 10:18:26;;;;;;;30.42;19.05;;;27.60;99.90;;;;;;5088280;28;20176;-61
2021/06/04 10:21:08;;;;;;;29.85;20.52;;;27.70;99.90;;;;;;5088192;28;20188;-61
2021/06/04 10:23:40;;;;;;;28.63;18.77;;;27.90;99.90;;;;;;5088215;28;20211;-61
2021/06/04 10:26:21;;;;;;;34.08;22.23;;;27.40;99.90;;;;;;5067028;28;20196;-61
2021/06/04 10:28:48;;;;;;;28.23;19.42;;;27.70;99.90;;;;;;5088206;28;20362;-62
2021/06/04 10:31:17;;;;;;;27.27;18.98;;;27.80;99.90;;;;;;5087919;28;20160;-61
2021/06/04 10:33:43;;;;;;;24.85;18.73;;;27.60;99.90;;;;;;5088109;28;20167;-61
2021/06/04 10:36:14;;;;;;;28.88;20.42;;;27.90;99.90;;;;;;5085242;28;20164;-61
2021/06/04 10:38:44;;;;;;;26.92;19.20;;;27.90;99.90;;;;;;5087069;28;20192;-61
2021/06/04 10:41:22;;;;;;;26.83;19.45;;;28.00;99.90;;;;;;5087290;28;20175;-61
2021/06/04 10:44:05;;;;;;;24.15;17.63;;;27.90;99.90;;;;;;5086483;28;20182;-61
2021/06/04 10:46:54;;;;;;;31.05;19.23;;;28.10;99.90;;;;;;5085629;28;20153;-61
2021/06/04 10:49:31;;;;;;;26.48;18.20;;;28.60;99.90;;;;;;5087387;28;20207;-61
2021/06/04 10:51:57;;;;;;;25.10;18.67;;;28.90;99.90;;;;;;5087988;28;20216;-61
2021/06/04 10:54:53;;;;;;;26.55;18.70;;;29.20;99.90;;;;;;5085532;28;20180;-62
2021/06/04 10:57:29;;;;;;;25.42;17.50;;;28.60;99.90;;;;;;5087222;28;20251;-62
2021/06/04 10:59:57;;;;;;;27.70;17.67;;;28.80;99.90;;;;;;5087477;28;20159;-61
2021/06/04 11:02:55;;;;;;;25.65;18.38;;;28.80;99.90;;;;;;5087435;28;20168;-62
2021/06/04 11:05:38;;;;;;;24.92;19.73;;;29.20;99.90;;;;;;5084372;28;20215;-61
2021/06/04 11:08:16;;;;;;;26.98;17.42;;;28.20;99.90;;;;;;5086304;28;20160;-61
2021/06/04 11:11:16;;;;;;;26.85;17.33;;;28.00;99.90;;;;;;5086866;28;20170;-61
2021/06/04 11:14:12;;;;;;;23.98;19.40;;;28.10;99.90;;;;;;5087276;28;20175;-62
2021/06/04 11:16:46;;;;;;;27.88;20.30;;;28.50;99.90;;;;;;5085737;28;20653;-61
2021/06/04 11:19:21;;;;;;;30.13;19.52;;;28.90;99.90;;;;;;5087089;28;20171;-62
2021/06/04 11:21:57;;;;;;;27.67;20.75;;;29.10;99.90;;;;;;5087222;28;20155;-61
2021/06/04 11:24:53;;;;;;;20.42;16.85;;;29.20;99.90;;;;;;5084877;28;20727;-62
2021/06/04 11:27:32;;;;;;;24.15;20.05;;;29.50;99.90;;;;;;5086664;28;20172;-61
2021/06/04 11:30:00;;;;;;;25.50;17.90;;;28.80;99.90;;;;;;5087074;28;20167;-62
2021/06/04 11:32:34;;;;;;;26.88;16.35;;;29.10;99.90;;;;;;5086824;28;20152;-62
2021/06/04 11:35:10;;;;;;;25.00;18.17;;;29.70;99.90;;;;;;5084345;28;20171;-61
2021/06/04 11:38:07;;;;;;;22.42;17.02;;;30.50;99.90;;;;;;5087202;28;20171;-62
2021/06/04 11:40:44;;;;;;;27.80;17.45;;;30.80;99.90;;;;;;5085172;28;20175;-62
2021/06/04 11:43:13;;;;;;;28.65;19.75;;;31.20;99.90;;;;;;5086607;28;20190;-59
2021/06/04 11:45:40;;;;;;;30.67;20.85;;;31.00;99.90;;;;;;5084104;28;20195;-59
2021/06/04 11:48:27;;;;;;;17.90;14.35;;;31.20;99.90;;;;;;5086425;28;20202;-60
2021/06/04 11:51:38;;;;;;;22.55;17.10;;;31.40;99.90;;;;;;5086209;28;20286;-62
2021/06/04 11:54:27;;;;;;;29.17;17.95;;;31.40;99.90;;;;;;5084326;28;20187;-60
2021/06/04 11:56:57;;;;;;;22.67;15.45;;;30.70;99.90;;;;;;5086176;28;20160;-60
2021/06/04 12:00:18;;;;;;;21.38;15.02;;;29.50;99.90;;;;;;5086459;28;20174;-60
2021/06/04 12:02:54;;;;;;;23.52;18.25;;;29.40;99.90;;;;;;5063590;28;20172;-60
2021/06/04 12:05:20;;;;;;;24.30;16.30;;;29.70;99.90;;;;;;5061074;28;20195;-60
2021/06/04 12:08:21;;;;;;;22.40;16.20;;;29.60;99.90;;;;;;5064269;28;20183;-60
2021/06/04 12:10:50;;;;;;;24.75;17.83;;;29.50;99.90;;;;;;5038726;28;20642;-61
2021/06/04 12:13:41;;;;;;;33.50;20.20;;;28.80;99.90;;;;;;5063960;28;20167;-61
2021/06/04 12:16:28;;;;;;;20.77;18.30;;;28.70;99.90;;;;;;5061107;28;20169;-61
2021/06/04 12:19:02;;;;;;;24.48;18.88;;;28.00;99.90;;;;;;5063944;28;20172;-62
2021/06/04 12:21:51;;;;;;;33.42;21.33;;;27.70;99.90;;;;;;5063622;28;20172;-61
2021/06/04 12:24:19;;;;;;;27.17;18.95;;;27.50;99.90;;;;;;5051525;28;20208;-62
2021/06/04 12:27:02;;;;;;;26.48;20.02;;;27.40;99.90;;;;;;5062324;28;20169;-61
2021/06/04 12:29:29;;;;;;;25.50;19.77;;;27.40;99.90;;;;;;5046774;28;20230;-62
2021/06/04 12:31:59;;;;;;;29.65;21.02;;;27.40;99.90;;;;;;5063762;28;20160;-62
2021/06/04 12:34:38;;;;;;;49.03;25.48;;;27.40;99.90;;;;;;5061100;28;20186;-61
2021/06/04 12:37:23;;;;;;;38.00;26.58;;;27.40;99.90;;;;;;5081023;28;20172;-61
2021/06/04 12:40:01;;;;;;;34.88;25.00;;;27.20;99.90;;;;;;5085617;28;20160;-61
2021/06/04 12:42:35;;;;;;;38.45;26.90;;;26.60;99.90;;;;;;5085358;28;20179;-60
2021/06/04 12:45:15;;;;;;;45.08;29.70;;;26.20;99.90;;;;;;5082898;28;20653;-61
2021/06/04 12:48:05;;;;;;;44.35;32.28;;;25.80;99.90;;;;;;5084334;28;20167;-61
2021/06/04 12:50:39;;;;;;;40.30;31.35;;;25.80;99.90;;;;;;5085507;28;20242;-61
2021/06/04 12:53:18;;;;;;;44.55;33.20;;;25.30;99.90;;;;;;5085799;28;20189;-61
2021/06/04 12:55:45;;;;;;;46.38;34.63;;;25.30;99.90;;;;;;5081689;28;20172;-61